sensor_id;sensor_type;location;lat;lon;timestamp;temperature;humidity
26063;DHT22;13837;48.562;12.108;2022-08-19T00:01:51;18.80;99.90
26063;DHT22;13837;48.562;12.108;2022-08-19T00:04:19;18.80;99.90
26063;DHT22;13837;48.562;12.108;2022-08-19T00:06:47;18.70;99.90
26063;DHT22;13837;48.562;12.108;2022-08-19T00:09:16;18.80;99.90
26063;DHT22;13837;48.562;12.108;2022-08-19T00:11:42;18.80;99.90
26063;DHT22;13837;48.562;12.108;2022-08-19T00:14:10;18.80;99.90
26063;DHT22;13837;48.562;12.108;2022-08-19T00:16:38;18.80;99.90
26063;DHT22;13837;48.562;12.108;2022-08-19T00:19:04;18.80;99.90
26063;DHT22;13837;48.562;12.108;2022-08-19T00:21:30;18.80;99.90
26063;DHT22;13837;48.562;12.108;2022-08-19T00:23:57;18.80;99.90
26063;DHT22;13837;48.562;12.108;2022-08-19T00:26:27;18.80;99.90
26063;DHT22;13837;48.562;12.108;2022-08-19T00:28:54;18.80;99.90
26063;DHT22;13837;48.562;12.108;2022-08-19T00:31:20;18.80;99.90
26063;DHT22;13837;48.562;12.108;2022-08-19T00:33:46;18.80;99.90
26063;DHT22;13837;48.562;12.108;2022-08-19T00:36:13;18.90;99.90
26063;DHT22;13837;48.562;12.108;2022-08-19T00:38:39;18.80;99.90
26063;DHT22;13837;48.562;12.108;2022-08-19T00:41:11;18.80;99.90
26063;DHT22;13837;48.562;12.108;2022-08-19T00:43:37;18.90;99.90
26063;DHT22;13837;48.562;12.108;2022-08-19T00:46:04;18.90;99.90
26063;DHT22;13837;48.562;12.108;2022-08-19T00:48:31;18.80;99.90
26063;DHT22;13837;48.562;12.108;2022-08-19T00:50:58;18.90;99.90
26063;DHT22;13837;48.562;12.108;2022-08-19T00:53:26;18.90;99.90
26063;DHT22;13837;48.562;12.108;2022-08-19T00:55:55;18.80;99.90
26063;DHT22;13837;48.562;12.108;2022-08-19T00:58:25;18.80;99.90
26063;DHT22;13837;48.562;12.108;2022-08-19T01:00:53;18.80;99.90
26063;DHT22;13837;48.562;12.108;2022-08-19T01:03:20;18.80;99.90
26063;DHT22;13837;48.562;12.108;2022-08-19T01:05:47;18.80;99.90
26063;DHT22;13837;48.562;12.108;2022-08-19T01:08:15;18.80;99.90
26063;DHT22;13837;48.562;12.108;2022-08-19T01:10:45;18.90;99.90
26063;DHT22;13837;48.562;12.108;2022-08-19T01:13:14;18.80;99.90
26063;DHT22;13837;48.562;12.108;2022-08-19T01:15:45;18.80;99.90
26063;DHT22;13837;48.562;12.108;2022-08-19T01:18:13;18.80;99.90
26063;DHT22;13837;48.562;12.108;2022-08-19T01:20:41;18.80;99.90
26063;DHT22;13837;48.562;12.108;2022-08-19T01:23:07;18.80;99.90
26063;DHT22;13837;48.562;12.108;2022-08-19T01:25:48;18.80;99.90
26063;DHT22;13837;48.562;12.108;2022-08-19T01:30:44;18.80;99.90
26063;DHT22;13837;48.562;12.108;2022-08-19T01:33:10;18.80;99.90
26063;DHT22;13837;48.562;12.108;2022-08-19T01:35:36;18.80;99.90
26063;DHT22;13837;48.562;12.108;2022-08-19T01:38:07;18.80;99.90
26063;DHT22;13837;48.562;12.108;2022-08-19T01:40:35;18.80;99.90
26063;DHT22;13837;48.562;12.108;2022-08-19T01:43:02;18.80;99.90
26063;DHT22;13837;48.562;12.108;2022-08-19T01:45:30;18.80;99.90
26063;DHT22;13837;48.562;12.108;2022-08-19T01:47:58;18.90;99.90
26063;DHT22;13837;48.562;12.108;2022-08-19T01:50:24;18.90;99.90
26063;DHT22;13837;48.562;12.108;2022-08-19T01:52:50;18.90;99.90
26063;DHT22;13837;48.562;12.108;2022-08-19T01:55:18;18.90;99.90
26063;DHT22;13837;48.562;12.108;2022-08-19T01:57:46;19.00;99.90
26063;DHT22;13837;48.562;12.108;2022-08-19T02:00:15;19.00;99.90
26063;DHT22;13837;48.562;12.108;2022-08-19T02:02:42;19.00;99.90
26063;DHT22;13837;48.562;12.108;2022-08-19T02:05:09;18.90;99.90
26063;DHT22;13837;48.562;12.108;2022-08-19T02:07:36;18.90;99.90
26063;DHT22;13837;48.562;12.108;2022-08-19T02:10:07;18.90;99.90
26063;DHT22;13837;48.562;12.108;2022-08-19T02:12:33;18.90;99.90
26063;DHT22;13837;48.562;12.108;2022-08-19T02:14:59;18.80;99.90
26063;DHT22;13837;48.562;12.108;2022-08-19T02:17:26;18.80;99.90
26063;DHT22;13837;48.562;12.108;2022-08-19T02:19:54;18.70;99.90
26063;DHT22;13837;48.562;12.108;2022-08-19T02:22:21;18.80;99.90
26063;DHT22;13837;48.562;12.108;2022-08-19T02:24:46;18.70;99.90
26063;DHT22;13837;48.562;12.108;2022-08-19T02:27:14;18.80;99.90
26063;DHT22;13837;48.562;12.108;2022-08-19T02:29:39;18.70;99.90
26063;DHT22;13837;48.562;12.108;2022-08-19T02:32:07;18.70;99.90
26063;DHT22;13837;48.562;12.108;2022-08-19T02:34:34;18.70;99.90
26063;DHT22;13837;48.562;12.108;2022-08-19T02:37:00;18.70;99.90
26063;DHT22;13837;48.562;12.108;2022-08-19T02:39:26;18.70;99.90
26063;DHT22;13837;48.562;12.108;2022-08-19T02:41:51;18.80;99.90
26063;DHT22;13837;48.562;12.108;2022-08-19T02:44:17;18.80;99.90
26063;DHT22;13837;48.562;12.108;2022-08-19T02:46:45;18.70;99.90
26063;DHT22;13837;48.562;12.108;2022-08-19T02:49:12;18.80;99.90
26063;DHT22;13837;48.562;12.108;2022-08-19T02:51:41;18.80;99.90
26063;DHT22;13837;48.562;12.108;2022-08-19T02:54:09;18.80;99.90
26063;DHT22;13837;48.562;12.108;2022-08-19T02:56:36;18.80;99.90
26063;DHT22;13837;48.562;12.108;2022-08-19T02:59:03;18.80;99.90
26063;DHT22;13837;48.562;12.108;2022-08-19T03:01:34;18.80;99.90
26063;DHT22;13837;48.562;12.108;2022-08-19T03:04:02;18.80;99.90
26063;DHT22;13837;48.562;12.108;2022-08-19T03:06:28;18.80;99.90
26063;DHT22;13837;48.562;12.108;2022-08-19T03:08:54;18.80;99.90
26063;DHT22;13837;48.562;12.108;2022-08-19T03:11:23;18.90;99.90
26063;DHT22;13837;48.562;12.108;2022-08-19T03:13:49;18.80;99.90
26063;DHT22;13837;48.562;12.108;2022-08-19T03:16:17;18.80;99.90
26063;DHT22;13837;48.562;12.108;2022-08-19T03:18:43;18.70;99.90
26063;DHT22;13837;48.562;12.108;2022-08-19T03:21:09;18.80;99.90
26063;DHT22;13837;48.562;12.108;2022-08-19T03:23:39;18.80;99.90
26063;DHT22;13837;48.562;12.108;2022-08-19T03:26:05;18.70;99.90
26063;DHT22;13837;48.562;12.108;2022-08-19T03:28:32;18.80;99.90
26063;DHT22;13837;48.562;12.108;2022-08-19T03:31:00;18.80;99.90
26063;DHT22;13837;48.562;12.108;2022-08-19T03:33:27;18.80;99.90
26063;DHT22;13837;48.562;12.108;2022-08-19T03:38:30;18.70;99.90
26063;DHT22;13837;48.562;12.108;2022-08-19T03:40:56;18.80;99.90
26063;DHT22;13837;48.562;12.108;2022-08-19T03:43:21;18.80;99.90
26063;DHT22;13837;48.562;12.108;2022-08-19T03:45:47;18.70;99.90
26063;DHT22;13837;48.562;12.108;2022-08-19T03:48:14;18.70;99.90
26063;DHT22;13837;48.562;12.108;2022-08-19T03:50:42;18.80;99.90
26063;DHT22;13837;48.562;12.108;2022-08-19T03:53:07;18.80;99.90
26063;DHT22;13837;48.562;12.108;2022-08-19T03:55:39;18.70;99.90
26063;DHT22;13837;48.562;12.108;2022-08-19T03:58:05;18.80;99.90
26063;DHT22;13837;48.562;12.108;2022-08-19T04:00:31;18.80;99.90
26063;DHT22;13837;48.562;12.108;2022-08-19T04:02:59;18.80;99.90
26063;DHT22;13837;48.562;12.108;2022-08-19T04:05:27;18.90;99.90
26063;DHT22;13837;48.562;12.108;2022-08-19T04:07:53;18.80;99.90
26063;DHT22;13837;48.562;12.108;2022-08-19T04:10:22;18.80;99.90
26063;DHT22;13837;48.562;12.108;2022-08-19T04:12:49;18.80;99.90
26063;DHT22;13837;48.562;12.108;2022-08-19T04:15:15;18.80;99.90
26063;DHT22;13837;48.562;12.108;2022-08-19T04:17:41;18.80;99.90
26063;DHT22;13837;48.562;12.108;2022-08-19T04:20:07;18.90;99.90
26063;DHT22;13837;48.562;12.108;2022-08-19T04:22:33;18.80;99.90
26063;DHT22;13837;48.562;12.108;2022-08-19T04:24:59;18.80;99.90
26063;DHT22;13837;48.562;12.108;2022-08-19T04:27:24;18.80;99.90
26063;DHT22;13837;48.562;12.108;2022-08-19T04:29:50;18.70;99.90
26063;DHT22;13837;48.562;12.108;2022-08-19T04:32:17;18.70;99.90
26063;DHT22;13837;48.562;12.108;2022-08-19T04:34:43;18.60;99.90
26063;DHT22;13837;48.562;12.108;2022-08-19T04:37:09;18.60;99.90
26063;DHT22;13837;48.562;12.108;2022-08-19T04:39:39;18.70;99.90
26063;DHT22;13837;48.562;12.108;2022-08-19T04:42:23;18.70;99.90
26063;DHT22;13837;48.562;12.108;2022-08-19T04:45:13;18.70;99.90
26063;DHT22;13837;48.562;12.108;2022-08-19T04:47:41;18.80;99.90
26063;DHT22;13837;48.562;12.108;2022-08-19T04:50:08;18.80;99.90
26063;DHT22;13837;48.562;12.108;2022-08-19T04:52:40;18.70;99.90
26063;DHT22;13837;48.562;12.108;2022-08-19T04:55:10;18.70;99.90
26063;DHT22;13837;48.562;12.108;2022-08-19T04:57:36;18.80;99.90
26063;DHT22;13837;48.562;12.108;2022-08-19T05:00:07;18.90;99.90
26063;DHT22;13837;48.562;12.108;2022-08-19T05:02:33;19.00;99.90
26063;DHT22;13837;48.562;12.108;2022-08-19T05:04:59;19.00;99.90
26063;DHT22;13837;48.562;12.108;2022-08-19T05:07:26;19.00;99.90
26063;DHT22;13837;48.562;12.108;2022-08-19T05:09:52;19.00;99.90
26063;DHT22;13837;48.562;12.108;2022-08-19T05:12:18;19.00;99.90
26063;DHT22;13837;48.562;12.108;2022-08-19T05:14:45;18.90;99.90
26063;DHT22;13837;48.562;12.108;2022-08-19T05:17:13;19.00;99.90
26063;DHT22;13837;48.562;12.108;2022-08-19T05:19:38;19.00;99.90
26063;DHT22;13837;48.562;12.108;2022-08-19T05:22:23;18.80;99.90
26063;DHT22;13837;48.562;12.108;2022-08-19T05:24:58;18.90;99.90
26063;DHT22;13837;48.562;12.108;2022-08-19T05:27:24;19.00;99.90
26063;DHT22;13837;48.562;12.108;2022-08-19T05:29:50;19.00;99.90
26063;DHT22;13837;48.562;12.108;2022-08-19T05:32:16;19.00;99.90
26063;DHT22;13837;48.562;12.108;2022-08-19T05:34:41;18.90;99.90
26063;DHT22;13837;48.562;12.108;2022-08-19T05:37:08;18.90;99.90
26063;DHT22;13837;48.562;12.108;2022-08-19T05:39:36;18.90;99.90
26063;DHT22;13837;48.562;12.108;2022-08-19T05:42:06;18.80;99.90
26063;DHT22;13837;48.562;12.108;2022-08-19T05:44:35;18.80;99.90
26063;DHT22;13837;48.562;12.108;2022-08-19T05:47:03;18.70;99.90
26063;DHT22;13837;48.562;12.108;2022-08-19T05:49:30;18.80;99.90
26063;DHT22;13837;48.562;12.108;2022-08-19T05:51:56;18.70;99.90
26063;DHT22;13837;48.562;12.108;2022-08-19T05:54:23;18.80;99.90
26063;DHT22;13837;48.562;12.108;2022-08-19T05:56:50;18.80;99.90
26063;DHT22;13837;48.562;12.108;2022-08-19T05:59:17;18.80;99.90
26063;DHT22;13837;48.562;12.108;2022-08-19T06:01:46;18.80;99.90
26063;DHT22;13837;48.562;12.108;2022-08-19T06:04:13;18.80;99.90
26063;DHT22;13837;48.562;12.108;2022-08-19T06:06:43;18.70;99.90
26063;DHT22;13837;48.562;12.108;2022-08-19T06:09:09;18.80;99.90
26063;DHT22;13837;48.562;12.108;2022-08-19T06:11:44;18.80;99.90
26063;DHT22;13837;48.562;12.108;2022-08-19T06:14:16;18.80;99.90
26063;DHT22;13837;48.562;12.108;2022-08-19T06:16:43;18.70;99.90
26063;DHT22;13837;48.562;12.108;2022-08-19T06:19:13;18.70;99.90
26063;DHT22;13837;48.562;12.108;2022-08-19T06:21:41;18.70;99.90
26063;DHT22;13837;48.562;12.108;2022-08-19T06:24:10;18.80;99.90
26063;DHT22;13837;48.562;12.108;2022-08-19T06:26:38;18.80;99.90
26063;DHT22;13837;48.562;12.108;2022-08-19T06:29:07;18.70;99.90
26063;DHT22;13837;48.562;12.108;2022-08-19T06:31:34;18.70;99.90
26063;DHT22;13837;48.562;12.108;2022-08-19T06:34:02;18.70;99.90
26063;DHT22;13837;48.562;12.108;2022-08-19T06:36:49;18.70;99.90
26063;DHT22;13837;48.562;12.108;2022-08-19T06:39:24;18.60;99.90
26063;DHT22;13837;48.562;12.108;2022-08-19T06:41:53;18.60;99.90
26063;DHT22;13837;48.562;12.108;2022-08-19T06:44:21;18.60;99.90
26063;DHT22;13837;48.562;12.108;2022-08-19T06:46:47;18.60;99.90
26063;DHT22;13837;48.562;12.108;2022-08-19T06:49:14;18.50;99.90
26063;DHT22;13837;48.562;12.108;2022-08-19T06:51:42;18.50;99.90
26063;DHT22;13837;48.562;12.108;2022-08-19T06:54:09;18.50;99.90
26063;DHT22;13837;48.562;12.108;2022-08-19T06:56:35;18.50;99.90
26063;DHT22;13837;48.562;12.108;2022-08-19T06:59:08;18.50;99.90
26063;DHT22;13837;48.562;12.108;2022-08-19T07:01:36;18.50;99.90
26063;DHT22;13837;48.562;12.108;2022-08-19T07:04:05;18.50;99.90
26063;DHT22;13837;48.562;12.108;2022-08-19T07:06:31;18.60;99.90
26063;DHT22;13837;48.562;12.108;2022-08-19T07:08:57;18.60;99.90
26063;DHT22;13837;48.562;12.108;2022-08-19T07:11:24;18.70;99.90
26063;DHT22;13837;48.562;12.108;2022-08-19T07:13:50;18.80;99.90
26063;DHT22;13837;48.562;12.108;2022-08-19T07:16:18;18.80;99.90
26063;DHT22;13837;48.562;12.108;2022-08-19T07:18:50;18.70;99.90
26063;DHT22;13837;48.562;12.108;2022-08-19T07:21:23;18.70;99.90
26063;DHT22;13837;48.562;12.108;2022-08-19T07:23:50;18.60;99.90
26063;DHT22;13837;48.562;12.108;2022-08-19T07:26:25;18.70;99.90
26063;DHT22;13837;48.562;12.108;2022-08-19T07:28:51;18.60;99.90
26063;DHT22;13837;48.562;12.108;2022-08-19T07:31:19;18.60;99.90
26063;DHT22;13837;48.562;12.108;2022-08-19T07:33:46;18.70;99.90
26063;DHT22;13837;48.562;12.108;2022-08-19T07:36:14;18.70;99.90
26063;DHT22;13837;48.562;12.108;2022-08-19T07:38:43;18.70;99.90
26063;DHT22;13837;48.562;12.108;2022-08-19T07:41:11;18.70;99.90
26063;DHT22;13837;48.562;12.108;2022-08-19T07:43:38;18.70;99.90
26063;DHT22;13837;48.562;12.108;2022-08-19T07:46:06;18.70;99.90
26063;DHT22;13837;48.562;12.108;2022-08-19T07:48:33;18.80;99.90
26063;DHT22;13837;48.562;12.108;2022-08-19T07:51:01;18.70;99.90
26063;DHT22;13837;48.562;12.108;2022-08-19T07:53:30;18.80;99.90
26063;DHT22;13837;48.562;12.108;2022-08-19T07:55:56;18.80;99.90
26063;DHT22;13837;48.562;12.108;2022-08-19T07:58:34;18.80;99.90
26063;DHT22;13837;48.562;12.108;2022-08-19T08:01:01;19.00;99.90
26063;DHT22;13837;48.562;12.108;2022-08-19T08:03:28;19.00;99.90
26063;DHT22;13837;48.562;12.108;2022-08-19T08:06:14;19.10;99.90
26063;DHT22;13837;48.562;12.108;2022-08-19T08:08:59;19.20;99.90
26063;DHT22;13837;48.562;12.108;2022-08-19T08:11:42;19.30;99.90
26063;DHT22;13837;48.562;12.108;2022-08-19T08:14:08;19.50;99.90
26063;DHT22;13837;48.562;12.108;2022-08-19T08:16:38;19.60;99.90
26063;DHT22;13837;48.562;12.108;2022-08-19T08:19:05;19.70;99.90
26063;DHT22;13837;48.562;12.108;2022-08-19T08:21:32;19.70;99.90
26063;DHT22;13837;48.562;12.108;2022-08-19T08:23:58;19.60;99.90
26063;DHT22;13837;48.562;12.108;2022-08-19T08:26:24;19.70;99.90
26063;DHT22;13837;48.562;12.108;2022-08-19T08:28:51;19.70;99.90
26063;DHT22;13837;48.562;12.108;2022-08-19T08:31:17;19.80;99.90
26063;DHT22;13837;48.562;12.108;2022-08-19T08:33:45;20.00;99.90
26063;DHT22;13837;48.562;12.108;2022-08-19T08:36:11;20.10;99.90
26063;DHT22;13837;48.562;12.108;2022-08-19T08:38:40;20.10;99.90
26063;DHT22;13837;48.562;12.108;2022-08-19T08:41:19;20.10;99.90
26063;DHT22;13837;48.562;12.108;2022-08-19T08:43:50;20.10;99.90
26063;DHT22;13837;48.562;12.108;2022-08-19T08:46:29;20.10;99.90
26063;DHT22;13837;48.562;12.108;2022-08-19T08:49:06;20.10;99.90
26063;DHT22;13837;48.562;12.108;2022-08-19T08:51:40;20.10;99.90
26063;DHT22;13837;48.562;12.108;2022-08-19T08:54:12;20.10;99.90
26063;DHT22;13837;48.562;12.108;2022-08-19T08:56:40;20.10;99.90
26063;DHT22;13837;48.562;12.108;2022-08-19T08:59:31;19.90;99.90
26063;DHT22;13837;48.562;12.108;2022-08-19T09:01:59;19.90;99.90
26063;DHT22;13837;48.562;12.108;2022-08-19T09:04:25;19.90;99.90
26063;DHT22;13837;48.562;12.108;2022-08-19T09:09:27;20.10;99.90
26063;DHT22;13837;48.562;12.108;2022-08-19T09:17:08;20.20;99.90
26063;DHT22;13837;48.562;12.108;2022-08-19T09:19:36;20.10;99.90
26063;DHT22;13837;48.562;12.108;2022-08-19T09:22:12;20.10;99.90
26063;DHT22;13837;48.562;12.108;2022-08-19T09:24:38;20.20;99.90
26063;DHT22;13837;48.562;12.108;2022-08-19T09:27:04;20.30;99.90
26063;DHT22;13837;48.562;12.108;2022-08-19T09:29:30;20.20;99.90
26063;DHT22;13837;48.562;12.108;2022-08-19T09:31:56;20.20;99.90
26063;DHT22;13837;48.562;12.108;2022-08-19T09:34:21;20.20;99.90
26063;DHT22;13837;48.562;12.108;2022-08-19T09:36:48;20.10;99.90
26063;DHT22;13837;48.562;12.108;2022-08-19T09:39:14;20.00;99.90
26063;DHT22;13837;48.562;12.108;2022-08-19T09:41:40;19.90;99.90
26063;DHT22;13837;48.562;12.108;2022-08-19T09:44:06;19.80;99.90
26063;DHT22;13837;48.562;12.108;2022-08-19T09:46:31;19.70;99.90
26063;DHT22;13837;48.562;12.108;2022-08-19T09:48:59;19.70;99.90
26063;DHT22;13837;48.562;12.108;2022-08-19T09:51:26;19.60;99.90
26063;DHT22;13837;48.562;12.108;2022-08-19T09:53:54;19.40;99.90
26063;DHT22;13837;48.562;12.108;2022-08-19T09:56:21;19.20;99.90
26063;DHT22;13837;48.562;12.108;2022-08-19T09:58:48;19.00;99.90
26063;DHT22;13837;48.562;12.108;2022-08-19T10:01:23;18.90;99.90
26063;DHT22;13837;48.562;12.108;2022-08-19T10:03:50;19.00;99.90
26063;DHT22;13837;48.562;12.108;2022-08-19T10:06:18;18.80;99.90
26063;DHT22;13837;48.562;12.108;2022-08-19T10:08:44;18.80;99.90
26063;DHT22;13837;48.562;12.108;2022-08-19T10:11:11;18.90;99.90
26063;DHT22;13837;48.562;12.108;2022-08-19T10:13:37;19.00;99.90
26063;DHT22;13837;48.562;12.108;2022-08-19T10:16:06;18.90;99.90
26063;DHT22;13837;48.562;12.108;2022-08-19T10:18:33;18.70;99.90
26063;DHT22;13837;48.562;12.108;2022-08-19T10:21:09;18.80;99.90
26063;DHT22;13837;48.562;12.108;2022-08-19T10:23:38;18.80;99.90
26063;DHT22;13837;48.562;12.108;2022-08-19T10:26:05;18.70;99.90
26063;DHT22;13837;48.562;12.108;2022-08-19T10:28:32;18.70;99.90
26063;DHT22;13837;48.562;12.108;2022-08-19T10:31:02;18.80;99.90
26063;DHT22;13837;48.562;12.108;2022-08-19T10:33:28;18.90;99.90
26063;DHT22;13837;48.562;12.108;2022-08-19T10:36:03;18.80;99.90
26063;DHT22;13837;48.562;12.108;2022-08-19T10:38:29;18.90;99.90
26063;DHT22;13837;48.562;12.108;2022-08-19T10:40:57;18.90;99.90
26063;DHT22;13837;48.562;12.108;2022-08-19T10:43:23;19.00;99.90
26063;DHT22;13837;48.562;12.108;2022-08-19T10:45:54;19.00;99.90
26063;DHT22;13837;48.562;12.108;2022-08-19T10:48:27;19.10;99.90
26063;DHT22;13837;48.562;12.108;2022-08-19T10:50:53;19.10;99.90
26063;DHT22;13837;48.562;12.108;2022-08-19T10:53:37;19.00;99.90
26063;DHT22;13837;48.562;12.108;2022-08-19T10:56:03;19.00;99.90
26063;DHT22;13837;48.562;12.108;2022-08-19T10:58:47;19.10;99.90
26063;DHT22;13837;48.562;12.108;2022-08-19T11:01:13;19.20;99.90
26063;DHT22;13837;48.562;12.108;2022-08-19T11:03:39;19.20;99.90
26063;DHT22;13837;48.562;12.108;2022-08-19T11:06:08;19.30;99.90
26063;DHT22;13837;48.562;12.108;2022-08-19T11:08:35;19.20;99.90
26063;DHT22;13837;48.562;12.108;2022-08-19T11:11:05;19.20;99.90
26063;DHT22;13837;48.562;12.108;2022-08-19T11:13:37;19.30;99.90
26063;DHT22;13837;48.562;12.108;2022-08-19T11:16:12;19.20;99.90
26063;DHT22;13837;48.562;12.108;2022-08-19T11:18:41;19.30;99.90
26063;DHT22;13837;48.562;12.108;2022-08-19T11:21:23;19.30;99.90
26063;DHT22;13837;48.562;12.108;2022-08-19T11:23:52;19.50;99.90
26063;DHT22;13837;48.562;12.108;2022-08-19T11:26:20;19.60;99.90
26063;DHT22;13837;48.562;12.108;2022-08-19T11:28:46;19.60;99.90
26063;DHT22;13837;48.562;12.108;2022-08-19T11:31:15;19.60;99.90
26063;DHT22;13837;48.562;12.108;2022-08-19T11:33:41;19.70;99.90
26063;DHT22;13837;48.562;12.108;2022-08-19T11:36:07;19.70;99.90
26063;DHT22;13837;48.562;12.108;2022-08-19T11:38:34;19.70;99.90
26063;DHT22;13837;48.562;12.108;2022-08-19T11:41:04;19.80;99.90
26063;DHT22;13837;48.562;12.108;2022-08-19T11:43:30;19.90;99.90
26063;DHT22;13837;48.562;12.108;2022-08-19T11:45:57;20.00;99.90
26063;DHT22;13837;48.562;12.108;2022-08-19T11:48:24;19.90;99.90
26063;DHT22;13837;48.562;12.108;2022-08-19T11:50:52;19.80;99.90
26063;DHT22;13837;48.562;12.108;2022-08-19T11:53:19;19.70;99.90
26063;DHT22;13837;48.562;12.108;2022-08-19T11:55:48;19.60;99.90
26063;DHT22;13837;48.562;12.108;2022-08-19T11:58:16;19.60;99.90
26063;DHT22;13837;48.562;12.108;2022-08-19T12:00:43;19.70;99.90
26063;DHT22;13837;48.562;12.108;2022-08-19T12:03:11;19.60;99.90
26063;DHT22;13837;48.562;12.108;2022-08-19T12:05:38;19.70;99.90
26063;DHT22;13837;48.562;12.108;2022-08-19T12:08:04;19.60;99.90
26063;DHT22;13837;48.562;12.108;2022-08-19T12:10:30;19.70;99.90
26063;DHT22;13837;48.562;12.108;2022-08-19T12:12:56;19.50;99.90
26063;DHT22;13837;48.562;12.108;2022-08-19T12:15:21;19.60;99.90
26063;DHT22;13837;48.562;12.108;2022-08-19T12:17:47;19.60;99.90
26063;DHT22;13837;48.562;12.108;2022-08-19T12:20:13;19.60;99.90
26063;DHT22;13837;48.562;12.108;2022-08-19T12:22:41;19.80;99.90
26063;DHT22;13837;48.562;12.108;2022-08-19T12:25:08;20.10;99.90
26063;DHT22;13837;48.562;12.108;2022-08-19T12:27:35;20.30;99.90
26063;DHT22;13837;48.562;12.108;2022-08-19T12:30:02;20.30;99.90
26063;DHT22;13837;48.562;12.108;2022-08-19T12:32:29;20.30;99.90
26063;DHT22;13837;48.562;12.108;2022-08-19T12:34:54;20.40;99.90
26063;DHT22;13837;48.562;12.108;2022-08-19T12:37:21;20.60;99.90
26063;DHT22;13837;48.562;12.108;2022-08-19T12:39:47;20.60;99.90
26063;DHT22;13837;48.562;12.108;2022-08-19T12:42:14;20.50;99.90
26063;DHT22;13837;48.562;12.108;2022-08-19T12:44:41;20.60;99.90
26063;DHT22;13837;48.562;12.108;2022-08-19T12:47:08;20.80;99.90
26063;DHT22;13837;48.562;12.108;2022-08-19T12:49:34;20.80;99.90
26063;DHT22;13837;48.562;12.108;2022-08-19T12:52:03;21.00;99.90
26063;DHT22;13837;48.562;12.108;2022-08-19T12:54:29;21.30;99.90
26063;DHT22;13837;48.562;12.108;2022-08-19T12:56:57;21.90;99.90
26063;DHT22;13837;48.562;12.108;2022-08-19T12:59:22;22.10;99.90
26063;DHT22;13837;48.562;12.108;2022-08-19T13:01:48;21.90;99.90
26063;DHT22;13837;48.562;12.108;2022-08-19T13:04:14;21.80;99.90
26063;DHT22;13837;48.562;12.108;2022-08-19T13:06:42;21.80;99.90
26063;DHT22;13837;48.562;12.108;2022-08-19T13:09:08;21.50;99.90
26063;DHT22;13837;48.562;12.108;2022-08-19T13:11:34;21.50;99.90
26063;DHT22;13837;48.562;12.108;2022-08-19T13:14:01;21.20;99.90
26063;DHT22;13837;48.562;12.108;2022-08-19T13:16:27;21.10;99.90
26063;DHT22;13837;48.562;12.108;2022-08-19T13:18:54;21.00;99.90
26063;DHT22;13837;48.562;12.108;2022-08-19T13:21:24;21.00;99.90
26063;DHT22;13837;48.562;12.108;2022-08-19T13:23:51;20.90;99.90
26063;DHT22;13837;48.562;12.108;2022-08-19T13:26:17;21.00;99.90
26063;DHT22;13837;48.562;12.108;2022-08-19T13:28:44;21.00;99.90
26063;DHT22;13837;48.562;12.108;2022-08-19T13:31:32;20.70;99.90
26063;DHT22;13837;48.562;12.108;2022-08-19T13:34:19;20.70;99.90
26063;DHT22;13837;48.562;12.108;2022-08-19T13:36:46;20.50;99.90
26063;DHT22;13837;48.562;12.108;2022-08-19T13:39:12;20.40;99.90
26063;DHT22;13837;48.562;12.108;2022-08-19T13:41:44;20.40;99.90
26063;DHT22;13837;48.562;12.108;2022-08-19T13:44:18;20.20;99.90
26063;DHT22;13837;48.562;12.108;2022-08-19T13:46:44;20.10;99.90
26063;DHT22;13837;48.562;12.108;2022-08-19T13:49:12;20.20;99.90
26063;DHT22;13837;48.562;12.108;2022-08-19T13:51:39;20.10;99.90
26063;DHT22;13837;48.562;12.108;2022-08-19T13:54:08;19.90;99.90
26063;DHT22;13837;48.562;12.108;2022-08-19T13:56:39;19.80;99.90
26063;DHT22;13837;48.562;12.108;2022-08-19T13:59:05;19.80;99.90
26063;DHT22;13837;48.562;12.108;2022-08-19T14:01:31;19.80;99.90
26063;DHT22;13837;48.562;12.108;2022-08-19T14:03:56;19.70;99.90
26063;DHT22;13837;48.562;12.108;2022-08-19T14:06:22;19.70;99.90
26063;DHT22;13837;48.562;12.108;2022-08-19T14:08:48;19.60;99.90
26063;DHT22;13837;48.562;12.108;2022-08-19T14:11:14;19.50;99.90
26063;DHT22;13837;48.562;12.108;2022-08-19T14:13:40;19.40;99.90
26063;DHT22;13837;48.562;12.108;2022-08-19T14:16:10;19.40;99.90
26063;DHT22;13837;48.562;12.108;2022-08-19T14:18:37;19.40;99.90
26063;DHT22;13837;48.562;12.108;2022-08-19T14:21:04;19.40;99.90
26063;DHT22;13837;48.562;12.108;2022-08-19T14:23:30;19.40;99.90
26063;DHT22;13837;48.562;12.108;2022-08-19T14:26:11;19.60;99.90
26063;DHT22;13837;48.562;12.108;2022-08-19T14:28:38;19.70;99.90
26063;DHT22;13837;48.562;12.108;2022-08-19T14:31:04;19.70;99.90
26063;DHT22;13837;48.562;12.108;2022-08-19T14:33:30;19.70;99.90
26063;DHT22;13837;48.562;12.108;2022-08-19T14:35:57;19.70;99.90
26063;DHT22;13837;48.562;12.108;2022-08-19T14:38:23;19.90;99.90
26063;DHT22;13837;48.562;12.108;2022-08-19T14:40:48;20.00;99.90
26063;DHT22;13837;48.562;12.108;2022-08-19T14:43:14;19.90;99.90
26063;DHT22;13837;48.562;12.108;2022-08-19T14:45:40;19.90;99.90
26063;DHT22;13837;48.562;12.108;2022-08-19T14:48:07;20.10;99.90
26063;DHT22;13837;48.562;12.108;2022-08-19T14:50:34;20.20;99.90
26063;DHT22;13837;48.562;12.108;2022-08-19T14:53:03;20.20;99.90
26063;DHT22;13837;48.562;12.108;2022-08-19T14:55:30;20.30;99.90
26063;DHT22;13837;48.562;12.108;2022-08-19T14:57:55;20.20;99.90
26063;DHT22;13837;48.562;12.108;2022-08-19T15:00:22;20.10;99.90
26063;DHT22;13837;48.562;12.108;2022-08-19T15:02:51;20.00;99.90
26063;DHT22;13837;48.562;12.108;2022-08-19T15:05:20;20.00;99.90
26063;DHT22;13837;48.562;12.108;2022-08-19T15:07:46;20.10;99.90
26063;DHT22;13837;48.562;12.108;2022-08-19T15:10:13;20.30;99.90
26063;DHT22;13837;48.562;12.108;2022-08-19T15:12:39;20.20;99.90
26063;DHT22;13837;48.562;12.108;2022-08-19T15:15:07;20.30;99.90
26063;DHT22;13837;48.562;12.108;2022-08-19T15:17:33;20.30;99.90
26063;DHT22;13837;48.562;12.108;2022-08-19T15:19:58;20.30;99.90
26063;DHT22;13837;48.562;12.108;2022-08-19T15:22:24;20.30;99.90
26063;DHT22;13837;48.562;12.108;2022-08-19T15:24:50;20.40;99.90
26063;DHT22;13837;48.562;12.108;2022-08-19T15:27:15;20.40;99.90
26063;DHT22;13837;48.562;12.108;2022-08-19T15:29:41;20.50;99.90
26063;DHT22;13837;48.562;12.108;2022-08-19T15:32:07;21.20;99.90
26063;DHT22;13837;48.562;12.108;2022-08-19T15:34:34;21.30;99.90